Have a Safe July 4th! 

Flight Track Log - Related Links

Times and Time Zones

All times are in EDT time to prevent confusion due to time zone crossing. See the AAL554 flight status page for this flight to view local times or setup timezone preferences in your user account.

Time Position Orientation Groundspeed Altitude Reporting Facility
EDT Latitude Longitude Course Direction KTS MPH feet Rate Location/Type
Sun 03:47:47 AM 37.6310 -122.2260 80° East 256 295 5,200  Level FlightAware ADS-B
Sun 03:48:00 AM 37.9432 -122.3143 80° East  Level FlightAware Approximate
Sun 03:48:17 AM 37.6220 -122.1830 105° East 273 314 6,600  Level FlightAware ADS-B
Sun 03:48:57 AM 37.6320 -122.1210 78° East 285 328 8,500 2,769 Climbing FlightAware ADS-B
Sun 03:49:22 AM 37.6480 -122.0810 63° Northeast 301 346 9,600 2,057 Climbing FlightAware ADS-B
Sun 03:50:07 AM 37.6780 -122.0060 63° Northeast 350 403 10,900 1,740 Climbing FlightAware ADS-B
Sun 03:51:02 AM 37.7210 -121.8980 63° Northeast 397 457 12,500 2,340 Climbing FlightAware ADS-B
Sun 03:51:47 AM 37.7590 -121.8020 63° Northeast 402 463 14,800 2,612 Climbing FlightAware ADS-B
Sun 03:52:27 AM 37.7890 -121.7150 66° East 422 486 16,200 2,188 Climbing FlightAware ADS-B
Sun 03:53:12 AM 37.8040 -121.6080 80° East 438 504 17,900 2,259 Climbing FlightAware ADS-B
Sun 03:53:52 AM 37.8120 -121.5010 85° East 450 518 19,400 2,175 Climbing FlightAware ADS-B
Sun 03:54:32 AM 37.8220 -121.3950 83° East 458 527 20,800 2,047 Climbing FlightAware ADS-B
Sun 03:55:17 AM 37.8340 -121.2720 83° East 468 539 22,300 1,976 Climbing FlightAware ADS-B
Sun 03:55:57 AM 37.8440 -121.1610 83° East 474 545 23,600 1,800 Climbing FlightAware ADS-B
Sun 03:56:37 AM 37.8530 -121.0520 84° East 479 551 24,700 1,575 Climbing FlightAware ADS-B
Sun 03:57:17 AM 37.8630 -120.9380 84° East 486 559 25,700 1,500 Climbing FlightAware ADS-B
Sun 03:57:57 AM 37.8720 -120.8290 84° East 492 566 26,700 1,667 Climbing FlightAware ADS-B
Sun 03:58:47 AM 37.8850 -120.6870 83° East 491 565 28,200 1,533 Climbing FlightAware ADS-B
Sun 03:59:27 AM 37.8950 -120.5700 84° East 495 570 29,000 1,129 Climbing FlightAware ADS-B
Sun 04:00:12 AM 37.9050 -120.4430 84° East 497 572 29,800 1,412 Climbing FlightAware ADS-B
Sun 04:00:52 AM 37.9150 -120.3220 84° East 494 568 31,000 1,579 Climbing FlightAware ADS-B
Sun 04:01:47 AM 37.9280 -120.1670 84° East 493 567 32,300 1,380 Climbing FlightAware ADS-B
Sun 04:02:32 AM 37.9380 -120.0400 84° East 492 566 33,300 1,271 Climbing FlightAware ADS-B
Sun 04:03:12 AM 37.9480 -119.9220 84° East 491 565 34,100 1,125 Climbing FlightAware ADS-B
Sun 04:03:52 AM 37.9560 -119.8110 85° East 493 567 34,800 635 Climbing FlightAware ADS-B
Sun 04:04:37 AM 37.9660 -119.6880 84° East 496 571 35,000 141 Climbing FlightAware ADS-B
Sun 04:05:17 AM 37.9750 -119.5650 85° East 499 574 35,000  Level FlightAware ADS-B
Sun 04:05:52 AM 37.9830 -119.4690 84° East 499 574 35,000  Level FlightAware ADS-B
Sun 04:06:42 AM 37.9940 -119.3150 85° East 503 579 35,000  Level FlightAware ADS-B
Sun 04:07:22 AM 38.0020 -119.2000 85° East 505 581 35,000  Level FlightAware ADS-B
Sun 04:08:07 AM 38.0110 -119.0670 85° East 507 583 35,000  Level FlightAware ADS-B
Sun 04:08:42 AM 38.0190 -118.9650 84° East 507 583 35,000  Level FlightAware ADS-B
Sun 04:09:27 AM 38.0280 -118.8490 84° East 507 583 35,000  Level FlightAware ADS-B
Sun 04:10:07 AM 38.0370 -118.7480 84° East 507 583 35,000  Level FlightAware ADS-B
Sun 04:10:47 AM 38.0450 -118.6470 84° East 507 583 35,000  Level FlightAware ADS-B
Sun 04:11:27 AM 38.0530 -118.5470 84° East 507 583 35,000  Level FlightAware ADS-B
Sun 04:12:17 AM 38.0640 -118.4210 84° East 507 583 35,000  Level FlightAware ADS-B
Sun 04:12:57 AM 38.0720 -118.3200 84° East 507 583 35,000  Level FlightAware ADS-B
Sun 04:13:37 AM 38.0800 -118.2190 84° East 507 583 35,000  Level FlightAware ADS-B
Sun 04:14:17 AM 38.0890 -118.1190 83° East 507 583 35,000  Level FlightAware ADS-B
Sun 04:14:57 AM 38.0970 -118.0180 84° East 507 583 35,000  Level FlightAware ADS-B
Sun 04:15:47 AM 38.1070 -117.8920 84° East 507 583 35,000  Level FlightAware ADS-B
Sun 04:16:27 AM 38.1160 -117.7910 84° East 507 583 35,000  Level FlightAware ADS-B
Sun 04:17:07 AM 38.1240 -117.6900 84° East 507 583 35,000  Level FlightAware ADS-B
Sun 04:17:47 AM 38.1320 -117.5890 84° East 507 583 35,000  Level FlightAware ADS-B
Sun 04:18:27 AM 38.1410 -117.4890 83° East 507 583 35,000  Level FlightAware ADS-B
Sun 04:19:21 AM 38.1344 -117.0953 83° East 503 579 35,000  Level Salt Lake Center
Sun 04:20:21 AM 38.1436 -116.9192 86° East 503 579 35,000  Level Salt Lake Center
Sun 04:21:21 AM 38.1531 -116.7436 86° East 498 573 35,000  Level Oakland Center
Sun 04:22:21 AM 38.1619 -116.5669 86° East 501 577 35,000  Level Oakland Center
Sun 04:23:21 AM 38.1703 -116.3892 87° East 504 580 35,000  Level Oakland Center
Sun 04:24:21 AM 38.1789 -116.2122 86° East 502 578 35,000  Level Oakland Center
Sun 04:25:21 AM 38.1869 -116.0339 87° East 506 582 35,000  Level Salt Lake Center
Sun 04:26:22 AM 38.1956 -115.8569 86° East 504 580 35,000  Level Salt Lake Center
Sun 04:27:22 AM 38.2022 -115.6772 87° East 509 586 35,000  Level Salt Lake Center
Sun 04:28:22 AM 38.2106 -115.4972 87° East 511 588 35,000  Level Salt Lake Center
Sun 04:29:22 AM 38.2183 -115.3217 87° East 510 587 35,000  Level Salt Lake Center
Sun 04:30:22 AM 38.2242 -115.1414 88° East 511 588 35,000  Level Salt Lake Center
Sun 04:31:22 AM 38.2311 -114.9606 87° East 512 589 35,000  Level Salt Lake Center
Sun 04:32:22 AM 38.2369 -114.7806 88° East 511 588 35,000  Level Salt Lake Center
Sun 04:33:22 AM 38.2433 -114.5989 87° East 515 593 35,000  Level Salt Lake Center
Sun 04:34:23 AM 38.2475 -114.4194 88° East 510 587 35,000  Level Salt Lake Center
Sun 04:35:23 AM 38.2153 -114.2425 103° East 512 589 35,000  Level Salt Lake Center
Sun 04:36:23 AM 38.1750 -114.0672 106° East 516 594 35,000  Level Salt Lake Center
Sun 04:37:23 AM 38.1369 -113.8911 105° East 517 595 35,000  Level Salt Lake Center
Sun 04:38:23 AM 38.0958 -113.7169 107° East 517 595 35,000  Level Salt Lake Center
Sun 04:39:23 AM 38.0572 -113.5408 106° East 518 596 35,000  Level Salt Lake Center
Sun 04:40:23 AM 38.0175 -113.3650 106° East 518 596 35,000  Level Salt Lake Center
Sun 04:41:23 AM 37.9767 -113.1869 106° East 523 602 35,000  Level Salt Lake Center
Sun 04:42:24 AM 37.9347 -113.0081 107° East 525 604 35,000  Level Salt Lake Center
Sun 04:43:24 AM 37.8944 -112.8289 106° East 524 603 35,000  Level Salt Lake Center
Sun 04:44:24 AM 37.8525 -112.6492 106° East 525 604 35,000  Level Salt Lake Center
Sun 04:45:24 AM 37.8111 -112.4719 106° East 523 602 35,000  Level Salt Lake Center
Sun 04:46:24 AM 37.7689 -112.2958 107° East 521 600 35,000  Level Salt Lake Center
Sun 04:47:24 AM 37.7264 -112.1203 107° East 521 600 35,000  Level Salt Lake Center
Sun 04:48:24 AM 37.6844 -111.9450 107° East 523 602 35,000  Level Salt Lake Center
Sun 04:49:24 AM 37.6403 -111.7689 108° East 526 605 35,000  Level Salt Lake Center
Sun 04:49:59 AM 37.6169 -111.6628 105° East 523 602 35,000  Level Denver Center
Sun 04:50:59 AM 37.5742 -111.4869 107° East 525 604 35,000  Level Denver Center
Sun 04:51:59 AM 37.5292 -111.3108 108° East 527 606 35,000  Level Denver Center
Sun 04:52:59 AM 37.4853 -111.1347 107° East 528 608 35,000  Level Denver Center
Sun 04:53:59 AM 37.4406 -110.9575 108° East 531 611 35,000  Level Denver Center
Sun 04:54:59 AM 37.3942 -110.7803 108° East 534 615 35,000  Level Denver Center
Sun 04:56:00 AM 37.3497 -110.6064 108° East 528 608 35,000  Level Denver Center
Sun 04:57:00 AM 37.3047 -110.4300 108° East 530 610 35,000  Level Denver Center
Sun 04:58:00 AM 37.2583 -110.2542 108° East 532 612 35,000  Level Denver Center
Sun 04:59:00 AM 37.2144 -110.0875 108° East 527 606 35,000  Level Denver Center
Sun 05:00:00 AM 37.1703 -109.9167 108° East 534 615 35,000  Level Denver Center
Sun 05:01:00 AM 37.1186 -109.7217 108° East 528 608 35,000  Level Denver Center
Sun 05:02:00 AM 37.0742 -109.5531 108° East 530 610 35,000  Level Denver Center
Sun 05:03:01 AM 37.0286 -109.3839 109° East 533 613 35,000  Level Denver Center
Sun 05:04:01 AM 36.9836 -109.2153 108° East 532 612 35,000  Level Denver Center
Sun 05:05:01 AM 36.9306 -109.0197 109° East 531 611 35,000  Level Denver Center
Sun 05:06:01 AM 36.8847 -108.8506 109° East 534 615 35,000  Level Denver Center
Sun 05:07:01 AM 36.8386 -108.6819 109° East 533 613 35,000  Level Denver Center
Sun 05:08:01 AM 36.7917 -108.5144 109° East 533 613 35,000  Level Denver Center
Sun 05:09:01 AM 36.7453 -108.3467 109° East 532 612 35,000  Level Denver Center
Sun 05:10:01 AM 36.6908 -108.1525 109° East 530 610 35,000  Level Denver Center
Sun 05:11:02 AM 36.6433 -107.9861 110° East 530 610 35,000  Level Denver Center
Sun 05:12:02 AM 36.5958 -107.8189 109° East 533 613 35,000  Level Denver Center
Sun 05:13:02 AM 36.5492 -107.6547 109° East 528 608 35,000  Level Denver Center
Sun 05:18:52 AM 36.2500 -106.6270 109° East 535 616 35,000  Level FlightAware ADS-B
Sun 05:19:47 AM 36.2030 -106.4690 110° East 538 619 35,000  Level FlightAware ADS-B
Sun 05:20:37 AM 36.1630 -106.3340 110° East 537 618 35,000  Level FlightAware ADS-B
Sun 05:21:17 AM 36.1260 -106.2130 111° Southeast 538 619 35,000  Level FlightAware ADS-B
Sun 05:22:02 AM 36.0910 -106.0950 110° East 538 619 35,000  Level FlightAware ADS-B
Sun 05:22:42 AM 36.0620 -105.9960 110° East 538 619 35,000  Level FlightAware ADS-B
Sun 05:23:22 AM 36.0330 -105.8980 110° East 538 619 35,000  Level FlightAware ADS-B
Sun 05:24:12 AM 35.9970 -105.7750 110° East 538 619 35,000  Level FlightAware ADS-B
Sun 05:24:52 AM 35.9390 -105.5990 112° Southeast 531 611 35,000  Level FlightAware ADS-B
Sun 05:25:32 AM 35.9110 -105.5020 110° East 531 611 35,000  Level FlightAware ADS-B
Sun 05:26:12 AM 35.8820 -105.4050 110° East 531 611 35,000  Level FlightAware ADS-B
Sun 05:26:52 AM 35.8540 -105.3080 110° East 531 611 35,000  Level FlightAware ADS-B
Sun 05:27:42 AM 35.8180 -105.1870 110° East 531 611 35,000  Level FlightAware ADS-B
Sun 05:28:22 AM 35.7890 -105.0900 110° East 531 611 35,000  Level FlightAware ADS-B
Sun 05:29:02 AM 35.7610 -104.9940 110° East 531 611 35,000  Level FlightAware ADS-B
Sun 05:29:42 AM 35.7320 -104.8970 110° East 531 611 35,000  Level FlightAware ADS-B
Sun 05:30:22 AM 35.7040 -104.8000 110° East 531 611 35,000  Level FlightAware ADS-B
Sun 05:31:12 AM 35.6680 -104.6800 110° East 531 611 35,000  Level FlightAware ADS-B
Sun 05:31:52 AM 35.6390 -104.5830 110° East 531 611 35,000  Level FlightAware ADS-B
Sun 05:32:32 AM 35.6110 -104.4860 110° East 531 611 35,000  Level FlightAware ADS-B
Sun 05:33:12 AM 35.5820 -104.3900 110° East 531 611 35,000  Level FlightAware ADS-B
Sun 05:33:52 AM 35.5540 -104.2930 110° East 531 611 35,000  Level FlightAware ADS-B
Sun 05:34:38 AM 35.4186 -103.9567 110° East 529 609 35,000  Level Albuquerque Center
Sun 05:35:38 AM 35.3625 -103.7853 112° Southeast 531 611 35,000  Level Albuquerque Center
Sun 05:36:38 AM 35.3067 -103.6136 112° Southeast 535 616 35,000  Level Albuquerque Center
Sun 05:37:38 AM 35.2494 -103.4433 112° Southeast 535 616 35,000  Level Albuquerque Center
Sun 05:38:38 AM 35.1928 -103.2711 112° Southeast 539 620 35,000  Level Albuquerque Center
Sun 05:39:38 AM 35.1350 -103.0994 112° Southeast 541 623 35,000  Level Albuquerque Center
Sun 05:40:39 AM 35.0856 -102.9561 113° Southeast 543 625 35,000  Level Albuquerque Center
Sun 05:41:39 AM 35.0303 -102.7914 112° Southeast 543 625 35,000  Level Albuquerque Center
Sun 05:42:39 AM 34.9600 -102.5883 113° Southeast 545 627 35,000  Level Albuquerque Center
Sun 05:43:39 AM 34.9031 -102.4194 112° Southeast 543 625 35,000  Level Albuquerque Center
Sun 05:44:39 AM 34.8464 -102.2508 112° Southeast 542 624 35,000  Level Albuquerque Center
Sun 05:45:39 AM 34.7869 -102.0822 113° Southeast 545 627 35,000  Level Albuquerque Center
Sun 05:46:39 AM 34.7294 -101.9167 113° Southeast 540 621 35,000  Level Albuquerque Center
Sun 05:47:39 AM 34.6731 -101.7528 113° Southeast 534 615 35,000  Level Albuquerque Center
Sun 05:48:39 AM 34.6150 -101.5867 113° Southeast 537 618 35,000  Level Albuquerque Center
Sun 05:49:39 AM 34.5569 -101.4200 113° Southeast 539 620 35,000  Level Albuquerque Center
Sun 05:50:40 AM 34.4983 -101.2544 113° Southeast 538 619 35,000  Level Albuquerque Center
Sun 05:51:40 AM 34.4386 -101.0889 114° Southeast 539 620 35,000  Level Albuquerque Center
Sun 05:52:40 AM 34.3825 -100.9206 112° Southeast 541 623 35,000  Level Albuquerque Center
Sun 05:53:40 AM 34.3297 -100.7506 111° Southeast 542 624 35,000  Level Albuquerque Center
Sun 05:54:40 AM 34.2742 -100.5831 112° Southeast 540 621 35,000  Level Albuquerque Center
Sun 05:55:40 AM 34.2183 -100.4125 112° Southeast 545 627 35,000  Level Albuquerque Center
Sun 05:56:40 AM 34.1619 -100.2431 112° Southeast 546 628 35,000  Level Albuquerque Center
Sun 05:57:40 AM 34.1083 -100.0819 112° Southeast 548 631 35,000  Level Albuquerque Center
Sun 05:58:40 AM 34.0497 -99.9092 112° Southeast 553 636 35,000 -148 Level Albuquerque Center
Sun 05:59:42 AM 33.9933 -99.7308 111° Southeast 543 625 34,700 -689 Descending Fort Worth Center
Sun 06:00:42 AM 33.9336 -99.5639 113° Southeast 538 619 33,600 -1,000 Descending Fort Worth Center
Sun 06:01:42 AM 33.8781 -99.3975 112° Southeast 538 619 32,700 -950 Descending Fort Worth Center
Sun 06:02:42 AM 33.8200 -99.2311 113° Southeast 533 613 31,700 -1,530 Descending Fort Worth Center
Sun 06:08:22 AM 33.5130 -98.3080 113° Southeast 485 558 22,500 -1,569 Descending FlightAware ADS-B
Sun 06:09:12 AM 33.4990 -98.1780 97° East 476 548 21,500 -600 Descending FlightAware ADS-B
Sun 06:10:02 AM 33.4870 -98.0670 97° East 476 548 21,500  Level FlightAware ADS-B
Sun 06:10:42 AM 33.4780 -97.9780 97° East 476 548 21,500  Level FlightAware ADS-B
Sun 06:11:22 AM 33.4690 -97.8880 97° East 476 548 21,500 -5,718 Level FlightAware ADS-B
Sun 06:12:07 AM 33.4290 -97.7550 110° East 403 464 13,400 -6,180 Descending FlightAware ADS-B
Sun 06:13:02 AM 33.3760 -97.6560 123° Southeast 385 443 11,200 -1,680 Descending FlightAware ADS-B
Sun 06:13:47 AM 33.3340 -97.5780 123° Southeast 346 398 10,600 -706 Descending FlightAware ADS-B
Sun 06:14:27 AM 33.3020 -97.5170 122° Southeast 312 359 10,200 -554 Descending FlightAware ADS-B
Sun 06:14:52 AM 33.2840 -97.4820 122° Southeast 294 338 10,000 -873 Descending FlightAware ADS-B
Sun 06:15:22 AM 33.2630 -97.4450 124° Southeast 287 330 9,400 -1,052 Descending FlightAware ADS-B
Sun 06:20:17 AM 33.0760 -97.0960 123° Southeast 198 228 4,300 -1,026 Descending FlightAware ADS-B
Sun 06:20:32 AM 33.0660 -97.0830 133° Southeast 189 217 4,100 -720 Descending FlightAware ADS-B
Sun 06:20:42 AM 33.0600 -97.0780 145° Southeast 189 217 4,000 -1,500 Descending FlightAware ADS-B
Sun 06:21:12 AM 33.0370 -97.0600 147° Southeast 161 185 3,100 -1,300 Descending FlightAware ADS-B
Sun 06:21:42 AM 33.0200 -97.0460 145° Southeast 137 158 2,700 -764 Descending FlightAware ADS-B
Sun 06:22:07 AM 33.0080 -97.0370 148° Southeast 123 142 2,400 -655 Descending FlightAware ADS-B
Sun 06:22:37 AM 32.9910 -97.0290 158° South 122 140 2,100 -800 Descending FlightAware ADS-B
Sun 06:23:07 AM 32.9750 -97.0300 183° South 122 140 1,600 -900 Descending FlightAware ADS-B
Sun 06:23:17 AM 32.9700 -97.0300 180° South 121 139 1,500 -400 Descending FlightAware ADS-B
Sun 06:23:52 AM 32.9510 -97.0300 180° South 124 143 1,300 -343 Descending FlightAware ADS-B

Login

Don't have an account? Register now (free) for customized features, flight alerts, and more!